Khamis Mushait, Saudi Arabia
Current Conditions -  °F | °C
As of 7:00 AM on Wednesday 22 Oct 2014 (Local Time) from OEKM Reporting Station
Clear Clear  
Wind Chill: 61°   Ceiling: Unl
Heat Index: 61°   Visibility: 6mi
Dew Point: 45°   Wind: 5mph
Humidity: 55%   Direction: 210°SSW
Pressure: 30.33"   Gusts: NA
Location:  18.3°N, 42.8°E
Report Text: OEKM 220400Z 21004KT CAVOK 16/07 Q1027 NOSIG
Loading
Personal Weather Stations






























Interactive Weather Map
Tropical Storm Tracking
New forecast layout! Learn more

10-Day Weather Forecast

Advertisements
Track Severe Weather on mobile